Friday, May 25, 2018, 8:37 PM EDT
Back to Local

KACY, Atlantic City International

Location: Absecon, NJ, United States Lat: 39.467
Local Time: 8:37 PM EDT ( 0:37 GMT) Lon: -74.583
Time Zone: US/Eastern Elev: 75 ft

Show me the last for .
Show Decoded

2018-05-25 19:54 METAR KACY 252354Z 20008KT 10SM CLR 25/17 A2991 RMK AO2 SLP128 T02500167 10300
                 20250 55004 =
2018-05-25 18:54 METAR KACY 252254Z 18008KT 10SM CLR 27/17 A2991 RMK AO2 SLP127 T02720172 =
2018-05-25 17:54 METAR KACY 252154Z 21014G22KT 10SM CLR 29/16 A2991 RMK AO2 SLP128 T02940161 =
2018-05-25 16:54 METAR KACY 252054Z 23014G21KT 10SM CLR 30/16 A2992 RMK AO2 SLP132 T03000161
                 56019 =
2018-05-25 15:54 METAR KACY 251954Z 22015G21KT 10SM CLR 30/16 A2994 RMK AO2 SLP137 T03000161 =
2018-05-25 14:54 METAR KACY 251854Z 23011G19KT 10SM CLR 30/16 A2996 RMK AO2 SLP143 T03000161 =
2018-05-25 13:54 METAR KACY 251754Z 22009G21KT 10SM SCT055 29/16 A2998 RMK AO2 SLP151 T02890161
                 10300 20211 57024 =
2018-05-25 12:54 METAR KACY 251654Z 25012G21KT 10SM CLR 29/14 A3000 RMK AO2 SLP158 T02940139 =
2018-05-25 11:54 METAR KACY 251554Z 22013G22KT 10SM CLR 29/13 A3003 RMK AO2 SLP168 T02890128 =
2018-05-25 10:54 METAR KACY 251454Z 23013KT 10SM CLR 28/16 A3005 RMK AO2 SLP175 T02780156 58017 =
2018-05-25 09:54 METAR KACY 251354Z 24008G17KT 10SM CLR 26/17 A3007 RMK AO2 SLP183 T02560167 =
2018-05-25 08:54 METAR KACY 251254Z 25006KT 10SM CLR 23/17 A3009 RMK AO2 SLP188 T02330172 =
2018-05-25 07:54 METAR KACY 251154Z 24008KT 10SM CLR 21/17 A3010 RMK AO2 SLP191 T02110167 10211
                 20128 50003 =
2018-05-25 06:54 METAR KACY 251054Z 24003KT 10SM CLR 17/15 A3011 RMK AO2 SLP194 T01670150 =
2018-05-25 05:54 METAR KACY 250954Z 00000KT 10SM CLR 15/13 A3010 RMK AO2 SLP190 T01500133 =
2018-05-25 04:54 METAR KACY 250854Z 00000KT 10SM CLR 15/14 A3009 RMK AO2 SLP188 T01500139 56012 =
2018-05-25 03:54 METAR KACY 250754Z 22003KT 10SM CLR 16/14 A3010 RMK AO2 SLP191 T01560139 =
2018-05-25 02:54 METAR KACY 250654Z 00000KT 10SM CLR 16/13 A3011 RMK AO2 SLP194 T01560128 =
2018-05-25 01:54 METAR KACY 250554Z 00000KT 10SM CLR 17/13 A3012 RMK AO2 SLP199 T01720128 10211
                 20167 58007 =
2018-05-25 00:54 METAR KACY 250454Z 21004KT 10SM CLR 18/13 A3013 RMK AO2 SLP203 T01780128
                 402830144 =
2018-05-24 23:54 METAR KACY 250354Z 20004KT 10SM CLR 17/12 A3014 RMK AO2 SLP206 T01720122 =
2018-05-24 22:54 METAR KACY 250254Z 20004KT 10SM CLR 18/12 A3014 RMK AO2 SLP207 T01780117 50005 =
2018-05-24 21:54 METAR KACY 250154Z 18005KT 10SM CLR 18/12 A3014 RMK AO2 SLP207 T01830117 =
2018-05-24 20:54 METAR KACY 250054Z 19004KT 10SM CLR 19/11 A3014 RMK AO2 SLP204 T01940111 =

Support USWX by starting your Amazon purchase here.